sensor_id;sensor_type;location;lat;lon;timestamp;P1;durP1;ratioP1;P2;durP2;ratioP2
35612;SDS011;22054;51.646;7.078;2023-07-24T00:00:16;0.00;;;0.00;;
35612;SDS011;22054;51.646;7.078;2023-07-24T00:02:42;0.00;;;0.00;;
35612;SDS011;22054;51.646;7.078;2023-07-24T00:05:07;0.00;;;0.00;;
35612;SDS011;22054;51.646;7.078;2023-07-24T00:07:35;0.00;;;0.00;;
35612;SDS011;22054;51.646;7.078;2023-07-24T00:10:00;0.00;;;0.00;;
35612;SDS011;22054;51.646;7.078;2023-07-24T00:12:27;0.00;;;0.00;;
35612;SDS011;22054;51.646;7.078;2023-07-24T00:14:53;0.00;;;0.00;;
35612;SDS011;22054;51.646;7.078;2023-07-24T00:17:19;0.00;;;0.00;;
35612;SDS011;22054;51.646;7.078;2023-07-24T00:19:44;0.00;;;0.00;;
35612;SDS011;22054;51.646;7.078;2023-07-24T00:22:10;0.00;;;0.00;;
35612;SDS011;22054;51.646;7.078;2023-07-24T00:24:36;0.00;;;0.00;;
35612;SDS011;22054;51.646;7.078;2023-07-24T00:27:01;0.00;;;0.00;;
35612;SDS011;22054;51.646;7.078;2023-07-24T00:29:28;0.00;;;0.00;;
35612;SDS011;22054;51.646;7.078;2023-07-24T00:31:53;0.00;;;0.00;;
35612;SDS011;22054;51.646;7.078;2023-07-24T00:34:19;0.00;;;0.00;;
35612;SDS011;22054;51.646;7.078;2023-07-24T00:36:45;0.00;;;0.00;;
35612;SDS011;22054;51.646;7.078;2023-07-24T00:39:11;0.00;;;0.00;;
35612;SDS011;22054;51.646;7.078;2023-07-24T00:41:39;0.00;;;0.00;;
35612;SDS011;22054;51.646;7.078;2023-07-24T00:44:05;0.00;;;0.00;;
35612;SDS011;22054;51.646;7.078;2023-07-24T00:46:30;0.00;;;0.00;;
35612;SDS011;22054;51.646;7.078;2023-07-24T00:48:58;0.00;;;0.00;;
35612;SDS011;22054;51.646;7.078;2023-07-24T00:51:26;0.00;;;0.00;;
35612;SDS011;22054;51.646;7.078;2023-07-24T00:53:54;0.00;;;0.00;;
35612;SDS011;22054;51.646;7.078;2023-07-24T00:56:21;0.00;;;0.00;;
35612;SDS011;22054;51.646;7.078;2023-07-24T00:58:47;0.00;;;0.00;;
35612;SDS011;22054;51.646;7.078;2023-07-24T01:01:15;0.00;;;0.00;;
35612;SDS011;22054;51.646;7.078;2023-07-24T01:03:42;0.00;;;0.00;;
35612;SDS011;22054;51.646;7.078;2023-07-24T01:06:08;0.00;;;0.00;;
35612;SDS011;22054;51.646;7.078;2023-07-24T01:08:34;0.00;;;0.00;;
35612;SDS011;22054;51.646;7.078;2023-07-24T01:11:20;0.00;;;0.00;;
35612;SDS011;22054;51.646;7.078;2023-07-24T01:16:47;0.00;;;0.00;;
35612;SDS011;22054;51.646;7.078;2023-07-24T01:22:01;0.00;;;0.00;;
35612;SDS011;22054;51.646;7.078;2023-07-24T01:24:46;0.00;;;0.00;;
35612;SDS011;22054;51.646;7.078;2023-07-24T01:27:26;0.00;;;0.00;;
35612;SDS011;22054;51.646;7.078;2023-07-24T01:29:52;0.00;;;0.00;;
35612;SDS011;22054;51.646;7.078;2023-07-24T01:32:18;0.00;;;0.00;;
35612;SDS011;22054;51.646;7.078;2023-07-24T01:34:44;0.00;;;0.00;;
35612;SDS011;22054;51.646;7.078;2023-07-24T01:37:11;0.00;;;0.00;;
35612;SDS011;22054;51.646;7.078;2023-07-24T01:39:39;0.00;;;0.00;;
35612;SDS011;22054;51.646;7.078;2023-07-24T01:42:06;0.00;;;0.00;;
35612;SDS011;22054;51.646;7.078;2023-07-24T01:44:32;0.00;;;0.00;;
35612;SDS011;22054;51.646;7.078;2023-07-24T01:46:58;0.00;;;0.00;;
35612;SDS011;22054;51.646;7.078;2023-07-24T01:49:24;0.00;;;0.00;;
35612;SDS011;22054;51.646;7.078;2023-07-24T01:51:49;0.00;;;0.00;;
35612;SDS011;22054;51.646;7.078;2023-07-24T01:54:15;0.00;;;0.00;;
35612;SDS011;22054;51.646;7.078;2023-07-24T01:56:41;0.00;;;0.00;;
35612;SDS011;22054;51.646;7.078;2023-07-24T01:59:08;0.00;;;0.00;;
35612;SDS011;22054;51.646;7.078;2023-07-24T02:01:34;0.00;;;0.00;;
35612;SDS011;22054;51.646;7.078;2023-07-24T02:04:01;0.00;;;0.00;;
35612;SDS011;22054;51.646;7.078;2023-07-24T02:06:27;0.00;;;0.00;;
35612;SDS011;22054;51.646;7.078;2023-07-24T02:08:52;0.00;;;0.00;;
35612;SDS011;22054;51.646;7.078;2023-07-24T02:11:18;0.00;;;0.00;;
35612;SDS011;22054;51.646;7.078;2023-07-24T02:13:44;0.00;;;0.00;;
35612;SDS011;22054;51.646;7.078;2023-07-24T02:16:11;0.00;;;0.00;;
35612;SDS011;22054;51.646;7.078;2023-07-24T02:18:38;0.00;;;0.00;;
35612;SDS011;22054;51.646;7.078;2023-07-24T02:21:07;0.00;;;0.00;;
35612;SDS011;22054;51.646;7.078;2023-07-24T02:23:33;0.00;;;0.00;;
35612;SDS011;22054;51.646;7.078;2023-07-24T02:25:59;0.00;;;0.00;;
35612;SDS011;22054;51.646;7.078;2023-07-24T02:28:25;0.00;;;0.00;;
35612;SDS011;22054;51.646;7.078;2023-07-24T02:30:51;0.00;;;0.00;;
35612;SDS011;22054;51.646;7.078;2023-07-24T02:35:49;0.00;;;0.00;;
35612;SDS011;22054;51.646;7.078;2023-07-24T02:38:17;0.00;;;0.00;;
35612;SDS011;22054;51.646;7.078;2023-07-24T02:40:43;0.00;;;0.00;;
35612;SDS011;22054;51.646;7.078;2023-07-24T02:43:10;0.00;;;0.00;;
35612;SDS011;22054;51.646;7.078;2023-07-24T02:45:39;0.00;;;0.00;;
35612;SDS011;22054;51.646;7.078;2023-07-24T02:48:05;0.00;;;0.00;;
35612;SDS011;22054;51.646;7.078;2023-07-24T02:50:32;0.00;;;0.00;;
35612;SDS011;22054;51.646;7.078;2023-07-24T02:52:58;0.00;;;0.00;;
35612;SDS011;22054;51.646;7.078;2023-07-24T02:55:24;0.00;;;0.00;;
35612;SDS011;22054;51.646;7.078;2023-07-24T02:57:50;0.00;;;0.00;;
35612;SDS011;22054;51.646;7.078;2023-07-24T03:00:16;0.00;;;0.00;;
35612;SDS011;22054;51.646;7.078;2023-07-24T03:02:42;0.00;;;0.00;;
35612;SDS011;22054;51.646;7.078;2023-07-24T03:05:08;0.00;;;0.00;;
35612;SDS011;22054;51.646;7.078;2023-07-24T03:07:34;0.00;;;0.00;;
35612;SDS011;22054;51.646;7.078;2023-07-24T03:10:00;0.00;;;0.00;;
35612;SDS011;22054;51.646;7.078;2023-07-24T03:12:26;0.00;;;0.00;;
35612;SDS011;22054;51.646;7.078;2023-07-24T03:14:52;0.00;;;0.00;;
35612;SDS011;22054;51.646;7.078;2023-07-24T03:17:18;0.00;;;0.00;;
35612;SDS011;22054;51.646;7.078;2023-07-24T03:19:43;0.00;;;0.00;;
35612;SDS011;22054;51.646;7.078;2023-07-24T03:22:09;0.00;;;0.00;;
35612;SDS011;22054;51.646;7.078;2023-07-24T03:24:35;0.00;;;0.00;;
35612;SDS011;22054;51.646;7.078;2023-07-24T03:27:01;0.00;;;0.00;;
35612;SDS011;22054;51.646;7.078;2023-07-24T03:29:27;0.00;;;0.00;;
35612;SDS011;22054;51.646;7.078;2023-07-24T03:31:53;0.00;;;0.00;;
35612;SDS011;22054;51.646;7.078;2023-07-24T03:34:18;0.00;;;0.00;;
35612;SDS011;22054;51.646;7.078;2023-07-24T03:36:44;0.00;;;0.00;;
35612;SDS011;22054;51.646;7.078;2023-07-24T03:39:10;0.00;;;0.00;;
35612;SDS011;22054;51.646;7.078;2023-07-24T03:41:36;0.00;;;0.00;;
35612;SDS011;22054;51.646;7.078;2023-07-24T03:44:03;0.00;;;0.00;;
35612;SDS011;22054;51.646;7.078;2023-07-24T03:46:29;0.00;;;0.00;;
35612;SDS011;22054;51.646;7.078;2023-07-24T03:48:56;0.00;;;0.00;;
35612;SDS011;22054;51.646;7.078;2023-07-24T03:51:22;0.00;;;0.00;;
35612;SDS011;22054;51.646;7.078;2023-07-24T03:53:47;0.00;;;0.00;;
35612;SDS011;22054;51.646;7.078;2023-07-24T03:56:13;0.00;;;0.00;;
35612;SDS011;22054;51.646;7.078;2023-07-24T03:58:39;0.00;;;0.00;;
35612;SDS011;22054;51.646;7.078;2023-07-24T04:01:05;0.00;;;0.00;;
35612;SDS011;22054;51.646;7.078;2023-07-24T04:03:31;0.00;;;0.00;;
35612;SDS011;22054;51.646;7.078;2023-07-24T04:05:57;0.00;;;0.00;;
35612;SDS011;22054;51.646;7.078;2023-07-24T04:08:23;0.00;;;0.00;;
35612;SDS011;22054;51.646;7.078;2023-07-24T04:10:48;0.00;;;0.00;;
35612;SDS011;22054;51.646;7.078;2023-07-24T04:13:14;0.00;;;0.00;;
35612;SDS011;22054;51.646;7.078;2023-07-24T04:15:40;0.00;;;0.00;;
35612;SDS011;22054;51.646;7.078;2023-07-24T04:18:06;0.00;;;0.00;;
35612;SDS011;22054;51.646;7.078;2023-07-24T04:20:31;0.00;;;0.00;;
35612;SDS011;22054;51.646;7.078;2023-07-24T04:22:57;0.00;;;0.00;;
35612;SDS011;22054;51.646;7.078;2023-07-24T04:25:23;0.00;;;0.00;;
35612;SDS011;22054;51.646;7.078;2023-07-24T04:27:48;0.00;;;0.00;;
35612;SDS011;22054;51.646;7.078;2023-07-24T04:30:14;0.00;;;0.00;;
35612;SDS011;22054;51.646;7.078;2023-07-24T04:32:40;0.00;;;0.00;;
35612;SDS011;22054;51.646;7.078;2023-07-24T04:35:06;0.00;;;0.00;;
35612;SDS011;22054;51.646;7.078;2023-07-24T04:37:32;0.00;;;0.00;;
35612;SDS011;22054;51.646;7.078;2023-07-24T04:39:58;0.00;;;0.00;;
35612;SDS011;22054;51.646;7.078;2023-07-24T04:42:23;0.00;;;0.00;;
35612;SDS011;22054;51.646;7.078;2023-07-24T04:44:49;0.00;;;0.00;;
35612;SDS011;22054;51.646;7.078;2023-07-24T04:47:16;0.00;;;0.00;;
35612;SDS011;22054;51.646;7.078;2023-07-24T04:49:42;0.00;;;0.00;;
35612;SDS011;22054;51.646;7.078;2023-07-24T04:52:08;0.00;;;0.00;;
35612;SDS011;22054;51.646;7.078;2023-07-24T04:54:33;0.00;;;0.00;;
35612;SDS011;22054;51.646;7.078;2023-07-24T04:56:59;0.00;;;0.00;;
35612;SDS011;22054;51.646;7.078;2023-07-24T04:59:25;0.00;;;0.00;;
35612;SDS011;22054;51.646;7.078;2023-07-24T05:01:50;0.00;;;0.00;;
35612;SDS011;22054;51.646;7.078;2023-07-24T05:04:16;0.00;;;0.00;;
35612;SDS011;22054;51.646;7.078;2023-07-24T05:06:42;0.00;;;0.00;;
35612;SDS011;22054;51.646;7.078;2023-07-24T05:09:08;0.00;;;0.00;;
35612;SDS011;22054;51.646;7.078;2023-07-24T05:11:33;0.00;;;0.00;;
35612;SDS011;22054;51.646;7.078;2023-07-24T05:13:59;0.00;;;0.00;;
35612;SDS011;22054;51.646;7.078;2023-07-24T05:16:25;0.00;;;0.00;;
35612;SDS011;22054;51.646;7.078;2023-07-24T05:18:50;0.00;;;0.00;;
35612;SDS011;22054;51.646;7.078;2023-07-24T05:21:16;0.00;;;0.00;;
35612;SDS011;22054;51.646;7.078;2023-07-24T05:23:42;0.00;;;0.00;;
35612;SDS011;22054;51.646;7.078;2023-07-24T05:26:07;0.00;;;0.00;;
35612;SDS011;22054;51.646;7.078;2023-07-24T05:28:33;0.00;;;0.00;;
35612;SDS011;22054;51.646;7.078;2023-07-24T05:31:03;0.00;;;0.00;;
35612;SDS011;22054;51.646;7.078;2023-07-24T05:33:30;0.00;;;0.00;;
35612;SDS011;22054;51.646;7.078;2023-07-24T05:35:59;0.00;;;0.00;;
35612;SDS011;22054;51.646;7.078;2023-07-24T05:38:26;0.00;;;0.00;;
35612;SDS011;22054;51.646;7.078;2023-07-24T05:40:54;0.00;;;0.00;;
35612;SDS011;22054;51.646;7.078;2023-07-24T05:43:24;0.00;;;0.00;;
35612;SDS011;22054;51.646;7.078;2023-07-24T05:45:51;0.00;;;0.00;;
35612;SDS011;22054;51.646;7.078;2023-07-24T05:48:17;0.00;;;0.00;;
35612;SDS011;22054;51.646;7.078;2023-07-24T05:50:43;0.00;;;0.00;;
35612;SDS011;22054;51.646;7.078;2023-07-24T05:53:09;0.00;;;0.00;;
35612;SDS011;22054;51.646;7.078;2023-07-24T05:55:35;0.00;;;0.00;;
35612;SDS011;22054;51.646;7.078;2023-07-24T05:58:00;0.00;;;0.00;;
35612;SDS011;22054;51.646;7.078;2023-07-24T06:00:26;0.00;;;0.00;;
35612;SDS011;22054;51.646;7.078;2023-07-24T06:02:52;0.00;;;0.00;;
35612;SDS011;22054;51.646;7.078;2023-07-24T06:05:19;0.00;;;0.00;;
35612;SDS011;22054;51.646;7.078;2023-07-24T06:07:45;0.00;;;0.00;;
35612;SDS011;22054;51.646;7.078;2023-07-24T06:10:11;0.00;;;0.00;;
35612;SDS011;22054;51.646;7.078;2023-07-24T06:12:37;0.00;;;0.00;;
35612;SDS011;22054;51.646;7.078;2023-07-24T06:15:03;0.00;;;0.00;;
35612;SDS011;22054;51.646;7.078;2023-07-24T06:17:30;0.00;;;0.00;;
35612;SDS011;22054;51.646;7.078;2023-07-24T06:19:56;0.00;;;0.00;;
35612;SDS011;22054;51.646;7.078;2023-07-24T06:22:22;0.00;;;0.00;;
35612;SDS011;22054;51.646;7.078;2023-07-24T06:24:48;0.00;;;0.00;;
35612;SDS011;22054;51.646;7.078;2023-07-24T06:27:14;0.00;;;0.00;;
35612;SDS011;22054;51.646;7.078;2023-07-24T06:29:40;0.00;;;0.00;;
35612;SDS011;22054;51.646;7.078;2023-07-24T06:32:06;0.00;;;0.00;;
35612;SDS011;22054;51.646;7.078;2023-07-24T06:34:32;0.00;;;0.00;;
35612;SDS011;22054;51.646;7.078;2023-07-24T06:36:58;0.00;;;0.00;;
35612;SDS011;22054;51.646;7.078;2023-07-24T06:39:24;0.00;;;0.00;;
35612;SDS011;22054;51.646;7.078;2023-07-24T06:41:53;0.00;;;0.00;;
35612;SDS011;22054;51.646;7.078;2023-07-24T06:44:19;0.00;;;0.00;;
35612;SDS011;22054;51.646;7.078;2023-07-24T06:46:46;0.00;;;0.00;;
35612;SDS011;22054;51.646;7.078;2023-07-24T06:49:12;0.00;;;0.00;;
35612;SDS011;22054;51.646;7.078;2023-07-24T06:51:38;0.00;;;0.00;;
35612;SDS011;22054;51.646;7.078;2023-07-24T06:54:04;0.00;;;0.00;;
35612;SDS011;22054;51.646;7.078;2023-07-24T06:56:31;0.00;;;0.00;;
35612;SDS011;22054;51.646;7.078;2023-07-24T06:58:57;0.00;;;0.00;;
35612;SDS011;22054;51.646;7.078;2023-07-24T07:01:23;0.00;;;0.00;;
35612;SDS011;22054;51.646;7.078;2023-07-24T07:03:49;0.00;;;0.00;;
35612;SDS011;22054;51.646;7.078;2023-07-24T07:06:14;0.00;;;0.00;;
35612;SDS011;22054;51.646;7.078;2023-07-24T07:08:40;0.00;;;0.00;;
35612;SDS011;22054;51.646;7.078;2023-07-24T07:11:06;0.00;;;0.00;;
35612;SDS011;22054;51.646;7.078;2023-07-24T07:13:32;0.00;;;0.00;;
35612;SDS011;22054;51.646;7.078;2023-07-24T07:15:58;0.00;;;0.00;;
35612;SDS011;22054;51.646;7.078;2023-07-24T07:18:23;0.00;;;0.00;;
35612;SDS011;22054;51.646;7.078;2023-07-24T07:20:50;0.00;;;0.00;;
35612;SDS011;22054;51.646;7.078;2023-07-24T07:23:18;0.00;;;0.00;;
35612;SDS011;22054;51.646;7.078;2023-07-24T07:25:45;0.00;;;0.00;;
35612;SDS011;22054;51.646;7.078;2023-07-24T07:28:15;0.00;;;0.00;;
35612;SDS011;22054;51.646;7.078;2023-07-24T07:30:42;0.00;;;0.00;;
35612;SDS011;22054;51.646;7.078;2023-07-24T07:33:08;0.00;;;0.00;;
35612;SDS011;22054;51.646;7.078;2023-07-24T07:35:35;0.00;;;0.00;;
35612;SDS011;22054;51.646;7.078;2023-07-24T07:38:03;0.00;;;0.00;;
35612;SDS011;22054;51.646;7.078;2023-07-24T07:40:29;0.00;;;0.00;;
35612;SDS011;22054;51.646;7.078;2023-07-24T07:42:55;0.00;;;0.00;;
35612;SDS011;22054;51.646;7.078;2023-07-24T07:45:22;0.00;;;0.00;;
35612;SDS011;22054;51.646;7.078;2023-07-24T07:47:48;0.00;;;0.00;;
35612;SDS011;22054;51.646;7.078;2023-07-24T07:50:15;0.00;;;0.00;;
35612;SDS011;22054;51.646;7.078;2023-07-24T07:52:40;0.00;;;0.00;;
35612;SDS011;22054;51.646;7.078;2023-07-24T07:55:06;0.00;;;0.00;;
35612;SDS011;22054;51.646;7.078;2023-07-24T07:57:36;0.00;;;0.00;;
35612;SDS011;22054;51.646;7.078;2023-07-24T08:00:03;0.00;;;0.00;;
35612;SDS011;22054;51.646;7.078;2023-07-24T08:02:30;0.00;;;0.00;;
35612;SDS011;22054;51.646;7.078;2023-07-24T08:04:57;0.00;;;0.00;;
35612;SDS011;22054;51.646;7.078;2023-07-24T08:07:23;0.00;;;0.00;;
35612;SDS011;22054;51.646;7.078;2023-07-24T08:09:49;0.00;;;0.00;;
35612;SDS011;22054;51.646;7.078;2023-07-24T08:12:15;0.00;;;0.00;;
35612;SDS011;22054;51.646;7.078;2023-07-24T08:14:40;0.00;;;0.00;;
35612;SDS011;22054;51.646;7.078;2023-07-24T08:17:06;0.00;;;0.00;;
35612;SDS011;22054;51.646;7.078;2023-07-24T08:19:32;0.00;;;0.00;;
35612;SDS011;22054;51.646;7.078;2023-07-24T08:21:58;0.00;;;0.00;;
35612;SDS011;22054;51.646;7.078;2023-07-24T08:24:23;0.00;;;0.00;;
35612;SDS011;22054;51.646;7.078;2023-07-24T08:26:49;0.00;;;0.00;;
35612;SDS011;22054;51.646;7.078;2023-07-24T08:29:15;0.00;;;0.00;;
35612;SDS011;22054;51.646;7.078;2023-07-24T08:31:40;0.00;;;0.00;;
35612;SDS011;22054;51.646;7.078;2023-07-24T08:34:06;0.00;;;0.00;;
35612;SDS011;22054;51.646;7.078;2023-07-24T08:36:32;0.00;;;0.00;;
35612;SDS011;22054;51.646;7.078;2023-07-24T08:38:58;0.00;;;0.00;;
35612;SDS011;22054;51.646;7.078;2023-07-24T08:41:23;0.00;;;0.00;;
35612;SDS011;22054;51.646;7.078;2023-07-24T08:43:49;0.00;;;0.00;;
35612;SDS011;22054;51.646;7.078;2023-07-24T08:46:17;0.00;;;0.00;;
35612;SDS011;22054;51.646;7.078;2023-07-24T08:48:43;0.00;;;0.00;;
35612;SDS011;22054;51.646;7.078;2023-07-24T08:51:10;0.00;;;0.00;;
35612;SDS011;22054;51.646;7.078;2023-07-24T08:53:39;0.00;;;0.00;;
35612;SDS011;22054;51.646;7.078;2023-07-24T08:56:08;0.00;;;0.00;;
35612;SDS011;22054;51.646;7.078;2023-07-24T08:58:35;0.00;;;0.00;;
35612;SDS011;22054;51.646;7.078;2023-07-24T09:01:02;0.00;;;0.00;;
35612;SDS011;22054;51.646;7.078;2023-07-24T09:03:30;0.00;;;0.00;;
35612;SDS011;22054;51.646;7.078;2023-07-24T09:05:57;0.00;;;0.00;;
35612;SDS011;22054;51.646;7.078;2023-07-24T09:08:35;0.00;;;0.00;;
35612;SDS011;22054;51.646;7.078;2023-07-24T09:11:06;0.00;;;0.00;;
35612;SDS011;22054;51.646;7.078;2023-07-24T09:13:40;0.00;;;0.00;;
35612;SDS011;22054;51.646;7.078;2023-07-24T09:16:07;0.00;;;0.00;;
35612;SDS011;22054;51.646;7.078;2023-07-24T09:18:40;0.00;;;0.00;;
35612;SDS011;22054;51.646;7.078;2023-07-24T09:21:07;0.00;;;0.00;;
35612;SDS011;22054;51.646;7.078;2023-07-24T09:23:39;0.00;;;0.00;;
35612;SDS011;22054;51.646;7.078;2023-07-24T09:26:06;0.00;;;0.00;;
35612;SDS011;22054;51.646;7.078;2023-07-24T09:28:33;0.00;;;0.00;;
35612;SDS011;22054;51.646;7.078;2023-07-24T09:30:59;0.00;;;0.00;;
35612;SDS011;22054;51.646;7.078;2023-07-24T09:33:39;0.00;;;0.00;;
35612;SDS011;22054;51.646;7.078;2023-07-24T09:36:06;0.00;;;0.00;;
35612;SDS011;22054;51.646;7.078;2023-07-24T09:38:33;0.00;;;0.00;;
35612;SDS011;22054;51.646;7.078;2023-07-24T09:41:04;0.00;;;0.00;;
35612;SDS011;22054;51.646;7.078;2023-07-24T09:43:30;0.00;;;0.00;;
35612;SDS011;22054;51.646;7.078;2023-07-24T09:45:57;0.00;;;0.00;;
35612;SDS011;22054;51.646;7.078;2023-07-24T09:48:23;0.00;;;0.00;;
35612;SDS011;22054;51.646;7.078;2023-07-24T09:50:55;0.00;;;0.00;;
35612;SDS011;22054;51.646;7.078;2023-07-24T09:56:19;0.00;;;0.00;;
35612;SDS011;22054;51.646;7.078;2023-07-24T09:58:48;0.00;;;0.00;;
35612;SDS011;22054;51.646;7.078;2023-07-24T10:01:19;0.00;;;0.00;;
35612;SDS011;22054;51.646;7.078;2023-07-24T10:03:48;0.10;;;0.10;;
35612;SDS011;22054;51.646;7.078;2023-07-24T10:08:41;0.00;;;0.00;;
35612;SDS011;22054;51.646;7.078;2023-07-24T10:11:09;0.00;;;0.00;;
35612;SDS011;22054;51.646;7.078;2023-07-24T10:13:42;0.30;;;0.30;;
35612;SDS011;22054;51.646;7.078;2023-07-24T10:16:08;11.45;;;10.85;;
35612;SDS011;22054;51.646;7.078;2023-07-24T10:18:35;0.00;;;0.00;;
35612;SDS011;22054;51.646;7.078;2023-07-24T10:21:09;0.00;;;0.00;;
35612;SDS011;22054;51.646;7.078;2023-07-24T10:23:36;0.00;;;0.00;;
35612;SDS011;22054;51.646;7.078;2023-07-24T10:26:07;0.00;;;0.00;;
35612;SDS011;22054;51.646;7.078;2023-07-24T10:28:34;0.00;;;0.00;;
35612;SDS011;22054;51.646;7.078;2023-07-24T10:31:06;0.00;;;0.00;;
35612;SDS011;22054;51.646;7.078;2023-07-24T10:33:53;0.00;;;0.00;;
35612;SDS011;22054;51.646;7.078;2023-07-24T10:36:20;0.00;;;0.00;;
35612;SDS011;22054;51.646;7.078;2023-07-24T10:38:54;0.00;;;0.00;;
35612;SDS011;22054;51.646;7.078;2023-07-24T10:41:21;0.00;;;0.00;;
35612;SDS011;22054;51.646;7.078;2023-07-24T10:46:15;0.00;;;0.00;;
35612;SDS011;22054;51.646;7.078;2023-07-24T10:48:44;0.00;;;0.00;;
35612;SDS011;22054;51.646;7.078;2023-07-24T10:51:15;0.00;;;0.00;;
35612;SDS011;22054;51.646;7.078;2023-07-24T10:53:48;0.00;;;0.00;;
35612;SDS011;22054;51.646;7.078;2023-07-24T10:56:15;0.00;;;0.00;;
35612;SDS011;22054;51.646;7.078;2023-07-24T10:58:41;0.00;;;0.00;;
35612;SDS011;22054;51.646;7.078;2023-07-24T11:01:08;0.00;;;0.00;;
35612;SDS011;22054;51.646;7.078;2023-07-24T11:03:36;0.00;;;0.00;;
35612;SDS011;22054;51.646;7.078;2023-07-24T11:06:03;0.00;;;0.00;;
35612;SDS011;22054;51.646;7.078;2023-07-24T11:08:29;0.00;;;0.00;;
35612;SDS011;22054;51.646;7.078;2023-07-24T11:10:56;0.00;;;0.00;;
35612;SDS011;22054;51.646;7.078;2023-07-24T11:13:24;0.00;;;0.00;;
35612;SDS011;22054;51.646;7.078;2023-07-24T11:15:52;0.00;;;0.00;;
35612;SDS011;22054;51.646;7.078;2023-07-24T11:18:19;0.00;;;0.00;;
35612;SDS011;22054;51.646;7.078;2023-07-24T11:20:51;0.00;;;0.00;;
35612;SDS011;22054;51.646;7.078;2023-07-24T11:23:18;0.00;;;0.00;;
35612;SDS011;22054;51.646;7.078;2023-07-24T11:25:45;0.00;;;0.00;;
35612;SDS011;22054;51.646;7.078;2023-07-24T11:28:12;0.00;;;0.00;;
35612;SDS011;22054;51.646;7.078;2023-07-24T11:30:40;0.00;;;0.00;;
35612;SDS011;22054;51.646;7.078;2023-07-24T11:33:07;0.00;;;0.00;;
35612;SDS011;22054;51.646;7.078;2023-07-24T11:35:35;0.00;;;0.00;;
35612;SDS011;22054;51.646;7.078;2023-07-24T11:38:03;0.00;;;0.00;;
35612;SDS011;22054;51.646;7.078;2023-07-24T11:40:34;0.00;;;0.00;;
35612;SDS011;22054;51.646;7.078;2023-07-24T11:43:03;0.00;;;0.00;;
35612;SDS011;22054;51.646;7.078;2023-07-24T11:45:30;0.00;;;0.00;;
35612;SDS011;22054;51.646;7.078;2023-07-24T11:47:56;0.00;;;0.00;;
35612;SDS011;22054;51.646;7.078;2023-07-24T11:50:22;0.00;;;0.00;;
35612;SDS011;22054;51.646;7.078;2023-07-24T11:52:50;0.00;;;0.00;;
35612;SDS011;22054;51.646;7.078;2023-07-24T11:55:18;0.00;;;0.00;;
35612;SDS011;22054;51.646;7.078;2023-07-24T11:57:59;0.00;;;0.00;;
35612;SDS011;22054;51.646;7.078;2023-07-24T12:00:26;0.00;;;0.00;;
35612;SDS011;22054;51.646;7.078;2023-07-24T12:03:01;0.00;;;0.00;;
35612;SDS011;22054;51.646;7.078;2023-07-24T12:05:29;0.00;;;0.00;;
35612;SDS011;22054;51.646;7.078;2023-07-24T12:08:05;0.00;;;0.00;;
35612;SDS011;22054;51.646;7.078;2023-07-24T12:10:34;0.00;;;0.00;;
35612;SDS011;22054;51.646;7.078;2023-07-24T12:13:04;0.00;;;0.00;;
35612;SDS011;22054;51.646;7.078;2023-07-24T12:15:30;0.00;;;0.00;;
35612;SDS011;22054;51.646;7.078;2023-07-24T12:18:00;0.00;;;0.00;;
35612;SDS011;22054;51.646;7.078;2023-07-24T12:20:27;0.00;;;0.00;;
35612;SDS011;22054;51.646;7.078;2023-07-24T12:22:53;0.00;;;0.00;;
35612;SDS011;22054;51.646;7.078;2023-07-24T12:25:19;0.00;;;0.00;;
35612;SDS011;22054;51.646;7.078;2023-07-24T12:27:48;0.00;;;0.00;;
35612;SDS011;22054;51.646;7.078;2023-07-24T12:30:14;0.00;;;0.00;;
35612;SDS011;22054;51.646;7.078;2023-07-24T12:32:40;0.00;;;0.00;;
35612;SDS011;22054;51.646;7.078;2023-07-24T12:35:07;0.00;;;0.00;;
35612;SDS011;22054;51.646;7.078;2023-07-24T12:37:34;0.00;;;0.00;;
35612;SDS011;22054;51.646;7.078;2023-07-24T12:40:00;0.00;;;0.00;;
35612;SDS011;22054;51.646;7.078;2023-07-24T12:42:25;0.00;;;0.00;;
35612;SDS011;22054;51.646;7.078;2023-07-24T12:44:52;0.00;;;0.00;;
35612;SDS011;22054;51.646;7.078;2023-07-24T12:47:17;0.00;;;0.00;;
35612;SDS011;22054;51.646;7.078;2023-07-24T12:49:44;0.00;;;0.00;;
35612;SDS011;22054;51.646;7.078;2023-07-24T12:52:10;0.00;;;0.00;;
35612;SDS011;22054;51.646;7.078;2023-07-24T12:54:36;0.00;;;0.00;;
35612;SDS011;22054;51.646;7.078;2023-07-24T12:57:02;1.70;;;1.65;;
35612;SDS011;22054;51.646;7.078;2023-07-24T12:59:28;0.00;;;0.00;;
35612;SDS011;22054;51.646;7.078;2023-07-24T13:01:54;15.45;;;13.90;;
35612;SDS011;22054;51.646;7.078;2023-07-24T13:04:20;0.00;;;0.00;;
35612;SDS011;22054;51.646;7.078;2023-07-24T13:06:47;0.00;;;0.00;;
35612;SDS011;22054;51.646;7.078;2023-07-24T13:09:13;0.00;;;0.00;;
35612;SDS011;22054;51.646;7.078;2023-07-24T13:11:39;0.00;;;0.00;;
35612;SDS011;22054;51.646;7.078;2023-07-24T13:14:05;0.00;;;0.00;;
35612;SDS011;22054;51.646;7.078;2023-07-24T13:16:31;0.00;;;0.00;;
35612;SDS011;22054;51.646;7.078;2023-07-24T13:18:56;26.15;;;24.95;;
35612;SDS011;22054;51.646;7.078;2023-07-24T13:21:22;25.77;;;24.58;;
35612;SDS011;22054;51.646;7.078;2023-07-24T13:23:48;25.10;;;24.00;;
35612;SDS011;22054;51.646;7.078;2023-07-24T13:26:14;23.30;;;22.30;;
35612;SDS011;22054;51.646;7.078;2023-07-24T13:28:40;21.83;;;20.92;;
35612;SDS011;22054;51.646;7.078;2023-07-24T13:31:13;21.05;;;20.15;;
35612;SDS011;22054;51.646;7.078;2023-07-24T13:33:41;18.63;;;17.83;;
35612;SDS011;22054;51.646;7.078;2023-07-24T13:36:07;16.20;;;15.50;;
35612;SDS011;22054;51.646;7.078;2023-07-24T13:38:34;15.45;;;14.85;;
35612;SDS011;22054;51.646;7.078;2023-07-24T13:41:00;14.68;;;14.07;;
35612;SDS011;22054;51.646;7.078;2023-07-24T13:43:26;13.38;;;12.88;;
35612;SDS011;22054;51.646;7.078;2023-07-24T13:45:54;12.90;;;12.40;;
35612;SDS011;22054;51.646;7.078;2023-07-24T13:48:20;10.68;;;10.27;;
35612;SDS011;22054;51.646;7.078;2023-07-24T13:50:45;9.60;;;9.20;;
35612;SDS011;22054;51.646;7.078;2023-07-24T13:53:11;8.35;;;8.05;;
35612;SDS011;22054;51.646;7.078;2023-07-24T13:55:37;7.70;;;7.40;;
35612;SDS011;22054;51.646;7.078;2023-07-24T13:58:03;6.78;;;6.47;;
35612;SDS011;22054;51.646;7.078;2023-07-24T14:00:29;8.02;;;7.72;;
35612;SDS011;22054;51.646;7.078;2023-07-24T14:02:54;6.88;;;6.57;;
35612;SDS011;22054;51.646;7.078;2023-07-24T14:05:21;6.20;;;6.00;;
35612;SDS011;22054;51.646;7.078;2023-07-24T14:07:46;6.70;;;6.40;;
35612;SDS011;22054;51.646;7.078;2023-07-24T14:10:12;6.20;;;6.00;;
35612;SDS011;22054;51.646;7.078;2023-07-24T14:12:38;6.10;;;5.90;;
35612;SDS011;22054;51.646;7.078;2023-07-24T14:15:03;6.80;;;6.50;;
35612;SDS011;22054;51.646;7.078;2023-07-24T14:17:30;5.70;;;5.50;;
35612;SDS011;22054;51.646;7.078;2023-07-24T14:19:55;5.63;;;5.43;;
35612;SDS011;22054;51.646;7.078;2023-07-24T14:22:21;5.80;;;5.60;;
35612;SDS011;22054;51.646;7.078;2023-07-24T14:24:47;5.60;;;5.40;;
35612;SDS011;22054;51.646;7.078;2023-07-24T14:27:13;6.03;;;5.82;;
35612;SDS011;22054;51.646;7.078;2023-07-24T14:29:39;5.40;;;5.20;;
35612;SDS011;22054;51.646;7.078;2023-07-24T14:32:06;5.60;;;5.40;;
35612;SDS011;22054;51.646;7.078;2023-07-24T14:34:32;5.53;;;5.32;;
35612;SDS011;22054;51.646;7.078;2023-07-24T14:36:58;5.63;;;5.43;;
35612;SDS011;22054;51.646;7.078;2023-07-24T14:39:24;5.55;;;5.35;;
35612;SDS011;22054;51.646;7.078;2023-07-24T14:41:50;5.38;;;5.18;;
35612;SDS011;22054;51.646;7.078;2023-07-24T14:44:16;5.85;;;5.65;;
35612;SDS011;22054;51.646;7.078;2023-07-24T14:46:42;5.63;;;5.43;;
35612;SDS011;22054;51.646;7.078;2023-07-24T14:49:08;5.60;;;5.40;;
35612;SDS011;22054;51.646;7.078;2023-07-24T14:51:33;5.70;;;5.50;;
35612;SDS011;22054;51.646;7.078;2023-07-24T14:53:59;5.43;;;5.22;;
35612;SDS011;22054;51.646;7.078;2023-07-24T14:56:25;5.32;;;5.13;;
35612;SDS011;22054;51.646;7.078;2023-07-24T14:58:50;5.18;;;4.97;;